createdAt,value
2019-05-11T00:02:17.701Z,1.60
2019-05-11T00:04:47.639Z,2.07
2019-05-11T00:07:17.726Z,1.70
2019-05-11T00:09:57.583Z,2.17
2019-05-11T00:12:22.144Z,1.97
2019-05-11T00:14:52.016Z,2.10
2019-05-11T00:17:21.809Z,2.10
2019-05-11T00:19:51.738Z,2.10
2019-05-11T00:22:21.673Z,2.10
2019-05-11T00:24:51.633Z,1.70
2019-05-11T00:27:21.729Z,1.57
2019-05-11T00:29:51.786Z,1.60
2019-05-11T00:32:22.886Z,1.60
2019-05-11T00:34:53.080Z,1.70
2019-05-11T00:37:23.190Z,1.77
2019-05-11T00:39:53.070Z,1.70
2019-05-11T00:42:23.209Z,1.90
2019-05-11T00:44:53.429Z,1.90
2019-05-11T00:47:23.836Z,1.70
2019-05-11T00:49:53.706Z,2.37
2019-05-11T00:52:23.548Z,1.90
2019-05-11T00:54:53.630Z,2.00
2019-05-11T00:57:23.366Z,2.03
2019-05-11T00:59:53.196Z,2.60
2019-05-11T01:02:23.161Z,2.20
2019-05-11T01:04:56.491Z,2.40
2019-05-11T01:07:26.266Z,2.20
2019-05-11T01:09:56.068Z,2.00
2019-05-11T01:12:26.438Z,2.00
2019-05-11T01:14:56.427Z,2.07
2019-05-11T01:17:26.189Z,2.30
2019-05-11T01:19:55.946Z,2.10
2019-05-11T01:22:25.823Z,2.00
2019-05-11T01:24:55.693Z,2.03
2019-05-11T01:27:25.489Z,2.33
2019-05-11T01:29:55.523Z,2.47
2019-05-11T01:32:25.619Z,2.10
2019-05-11T01:34:56.030Z,2.20
2019-05-11T01:37:28.649Z,2.10
2019-05-11T01:39:58.418Z,1.80
2019-05-11T01:42:31.955Z,2.57
2019-05-11T01:45:01.859Z,2.10
2019-05-11T01:47:33.089Z,2.50
2019-05-11T01:50:03.281Z,2.47
2019-05-11T01:52:33.135Z,2.10
2019-05-11T01:55:03.025Z,2.20
2019-05-11T01:57:33.030Z,2.43
2019-05-11T02:00:02.983Z,2.47
2019-05-11T02:02:32.947Z,2.43
2019-05-11T02:05:20.672Z,2.07
2019-05-11T02:07:50.482Z,2.50
2019-05-11T02:10:20.517Z,2.27
2019-05-11T02:12:50.327Z,1.90
2019-05-11T02:15:20.144Z,2.10
2019-05-11T02:17:49.906Z,2.10
2019-05-11T02:20:19.871Z,1.73
2019-05-11T02:22:49.641Z,1.80
2019-05-11T02:25:19.543Z,1.57
2019-05-11T02:27:49.425Z,2.27
2019-05-11T02:30:19.953Z,2.10
2019-05-11T02:32:49.903Z,2.13
2019-05-11T02:35:20.093Z,2.33
2019-05-11T02:37:50.182Z,2.60
2019-05-11T02:40:22.854Z,2.63
2019-05-11T02:42:52.826Z,2.57
2019-05-11T02:45:37.459Z,2.57
2019-05-11T02:48:07.412Z,2.00
2019-05-11T02:50:38.200Z,2.10
2019-05-11T02:53:09.090Z,2.20
2019-05-11T02:55:39.241Z,2.00
2019-05-11T02:58:09.247Z,2.00
2019-05-11T03:00:48.347Z,1.80
2019-05-11T03:03:18.386Z,1.93
2019-05-11T03:05:48.149Z,1.60
2019-05-11T03:08:18.367Z,2.33
2019-05-11T03:10:48.544Z,2.00
2019-05-11T03:13:18.384Z,1.73
2019-05-11T03:15:48.123Z,1.40
2019-05-11T03:18:18.052Z,1.43
2019-05-11T03:20:51.192Z,1.37
2019-05-11T03:23:21.231Z,1.67
2019-05-11T03:25:51.216Z,1.67
2019-05-11T03:28:21.243Z,1.63
2019-05-11T03:30:50.964Z,1.80
2019-05-11T03:33:22.566Z,1.40
2019-05-11T03:35:52.448Z,1.53
2019-05-11T03:38:22.211Z,1.87
2019-05-11T03:40:53.159Z,1.70
2019-05-11T03:43:22.990Z,1.30
2019-05-11T03:45:53.045Z,1.30
2019-05-11T03:48:22.909Z,1.40
2019-05-11T03:50:52.949Z,1.20
2019-05-11T03:53:24.695Z,1.30
2019-05-11T03:55:54.558Z,1.50
2019-05-11T03:58:26.260Z,1.27
2019-05-11T04:00:56.019Z,1.47
2019-05-11T04:03:25.794Z,1.20
2019-05-11T04:05:56.020Z,1.13
2019-05-11T04:08:25.702Z,1.60
2019-05-11T04:10:56.026Z,1.43
2019-05-11T04:13:26.083Z,1.40
2019-05-11T04:15:56.195Z,1.30
2019-05-11T04:18:27.055Z,1.40
2019-05-11T04:20:56.895Z,1.40
2019-05-11T04:23:28.549Z,1.23
2019-05-11T04:25:58.498Z,1.00
2019-05-11T04:28:27.496Z,1.43
2019-05-11T04:30:57.266Z,1.30
2019-05-11T04:33:27.500Z,1.30
2019-05-11T04:35:57.364Z,1.20
2019-05-11T04:38:27.435Z,1.30
2019-05-11T04:40:57.295Z,1.43
2019-05-11T04:43:27.749Z,1.20
2019-05-11T04:46:00.487Z,1.40
2019-05-11T04:48:31.487Z,1.53
2019-05-11T04:51:01.909Z,1.40
2019-05-11T04:53:31.635Z,1.30
2019-05-11T04:56:01.576Z,1.50
2019-05-11T04:58:31.414Z,1.33
2019-05-11T05:01:01.791Z,1.67
2019-05-11T05:03:40.357Z,1.50
2019-05-11T05:06:20.858Z,1.70
2019-05-11T05:08:34.531Z,1.40
2019-05-11T05:11:04.657Z,1.40
2019-05-11T05:13:34.902Z,1.30
2019-05-11T05:16:04.969Z,1.67
2019-05-11T05:18:35.044Z,1.30
2019-05-11T05:21:04.955Z,1.47
2019-05-11T05:23:34.990Z,1.60
2019-05-11T05:26:04.858Z,1.40
2019-05-11T05:28:34.973Z,1.67
2019-05-11T05:31:04.962Z,1.20
2019-05-11T05:33:34.983Z,1.60
2019-05-11T05:36:04.859Z,1.50
2019-05-11T05:38:34.692Z,1.50
2019-05-11T05:41:04.762Z,1.80
2019-05-11T05:43:34.840Z,1.30
2019-05-11T05:46:04.694Z,1.67
2019-05-11T05:48:34.634Z,1.60
2019-05-11T05:51:04.782Z,1.57
2019-05-11T05:53:34.775Z,1.50
2019-05-11T05:56:04.650Z,2.00
2019-05-11T05:58:34.488Z,1.70
2019-05-11T06:01:04.700Z,1.50
2019-05-11T06:03:34.498Z,1.87
2019-05-11T06:06:04.547Z,1.30
2019-05-11T06:08:34.450Z,1.00
2019-05-11T06:11:04.182Z,1.27
2019-05-11T06:13:44.539Z,1.00
2019-05-11T06:16:05.600Z,1.10
2019-05-11T06:18:35.382Z,1.10
2019-05-11T06:21:05.182Z,1.10
2019-05-11T06:23:35.005Z,1.20
2019-05-11T06:26:04.992Z,1.20
2019-05-11T06:28:34.725Z,1.07
2019-05-11T06:31:04.530Z,1.00
2019-05-11T06:33:34.557Z,1.33
2019-05-11T06:36:04.566Z,0.90
2019-05-11T06:38:35.665Z,1.10
2019-05-11T06:41:05.394Z,1.00
2019-05-11T06:43:35.110Z,1.00
2019-05-11T06:46:04.997Z,0.90
2019-05-11T06:48:35.039Z,1.20
2019-05-11T06:51:04.871Z,0.93
2019-05-11T06:53:34.633Z,1.00
2019-05-11T06:56:04.492Z,1.10
2019-05-11T06:58:34.260Z,1.00
2019-05-11T07:01:04.015Z,0.93
2019-05-11T07:03:34.046Z,1.00
2019-05-11T07:06:04.222Z,1.10
2019-05-11T07:08:34.320Z,1.00
2019-05-11T07:11:04.054Z,1.07
2019-05-11T07:13:33.934Z,1.17
2019-05-11T07:16:03.947Z,1.07
2019-05-11T07:18:33.734Z,0.90
2019-05-11T07:21:03.662Z,1.10
2019-05-11T07:23:33.964Z,1.00
2019-05-11T07:26:04.074Z,1.10
2019-05-11T07:28:33.861Z,1.03
2019-05-11T07:31:03.682Z,1.00
2019-05-11T07:33:33.618Z,1.30
2019-05-11T07:36:03.537Z,1.20
2019-05-11T07:38:33.597Z,1.03
2019-05-11T07:41:03.682Z,1.30
2019-05-11T07:43:33.443Z,1.10
2019-05-11T07:46:03.533Z,0.87
2019-05-11T07:48:33.322Z,1.07
2019-05-11T07:51:02.986Z,1.07
2019-05-11T07:53:32.694Z,1.20
2019-05-11T07:56:02.483Z,1.00
2019-05-11T07:58:32.174Z,1.00
2019-05-11T08:01:01.843Z,1.10
2019-05-11T08:03:31.571Z,0.80
2019-05-11T08:06:02.878Z,1.30
2019-05-11T08:08:32.750Z,1.30
2019-05-11T08:11:02.522Z,0.90
2019-05-11T08:13:32.226Z,1.07
2019-05-11T08:16:01.970Z,0.90
2019-05-11T08:18:31.663Z,0.90
2019-05-11T08:21:01.639Z,0.90
2019-05-11T08:23:31.362Z,1.00
2019-05-11T08:26:01.442Z,0.90
2019-05-11T08:28:31.202Z,1.00
2019-05-11T08:31:01.127Z,0.83
2019-05-11T08:33:30.846Z,0.90
2019-05-11T08:36:00.841Z,0.90
2019-05-11T08:38:31.034Z,0.90
2019-05-11T08:41:01.060Z,1.00
2019-05-11T08:43:30.763Z,0.63
2019-05-11T08:46:00.491Z,0.80
2019-05-11T08:48:30.635Z,0.70
2019-05-11T08:51:00.571Z,0.80
2019-05-11T08:53:30.522Z,0.90
2019-05-11T08:56:00.398Z,0.90
2019-05-11T08:58:30.163Z,0.90
2019-05-11T09:00:59.911Z,0.80
2019-05-11T09:03:29.734Z,0.70
2019-05-11T09:05:59.607Z,0.93
2019-05-11T09:08:29.528Z,0.80
2019-05-11T09:10:59.314Z,0.87
2019-05-11T09:13:29.880Z,0.80
2019-05-11T09:16:00.062Z,0.80
2019-05-11T09:18:29.759Z,0.67
2019-05-11T09:21:03.763Z,0.80
2019-05-11T09:23:38.268Z,0.83
2019-05-11T09:26:08.778Z,0.90
2019-05-11T09:28:38.626Z,0.97
2019-05-11T09:31:08.735Z,0.90
2019-05-11T09:33:38.739Z,0.70
2019-05-11T09:36:08.710Z,0.70
2019-05-11T09:38:38.578Z,0.70
2019-05-11T09:41:12.039Z,0.60
2019-05-11T09:43:39.802Z,0.83
2019-05-11T09:46:09.519Z,0.80
2019-05-11T09:48:39.771Z,1.40
2019-05-11T09:51:09.811Z,0.90
2019-05-11T09:53:39.814Z,1.37
2019-05-11T09:56:09.854Z,0.93
2019-05-11T09:58:39.630Z,0.90
2019-05-11T10:01:09.397Z,1.40
2019-05-11T10:03:39.399Z,1.33
2019-05-11T10:06:09.172Z,3.40
2019-05-11T10:08:38.934Z,0.90
2019-05-11T10:11:09.408Z,0.90
2019-05-11T10:13:39.122Z,0.80
2019-05-11T10:16:10.610Z,0.60
2019-05-11T10:18:40.474Z,1.20
2019-05-11T10:21:10.287Z,0.80
2019-05-11T10:23:42.596Z,1.10
2019-05-11T10:26:11.750Z,0.90
2019-05-11T10:28:41.519Z,0.80
2019-05-11T10:31:11.305Z,0.80
2019-05-11T10:33:40.996Z,0.90
2019-05-11T10:36:10.974Z,0.70
2019-05-11T10:38:41.259Z,0.93
2019-05-11T10:41:11.487Z,0.70
2019-05-11T10:43:41.631Z,0.80
2019-05-11T10:46:19.461Z,0.70
2019-05-11T10:48:42.693Z,0.97
2019-05-11T10:51:12.432Z,0.70
2019-05-11T10:53:42.162Z,0.70
2019-05-11T10:56:11.868Z,1.17
2019-05-11T10:58:41.546Z,0.73
2019-05-11T11:01:11.721Z,0.60
2019-05-11T11:03:41.410Z,0.80
2019-05-11T11:06:11.527Z,0.70
2019-05-11T11:08:41.498Z,0.63
2019-05-11T11:11:11.262Z,0.70
2019-05-11T11:13:41.258Z,0.90
2019-05-11T11:16:11.053Z,0.80
2019-05-11T11:18:40.753Z,0.97
2019-05-11T11:21:10.527Z,0.60
2019-05-11T11:23:40.465Z,0.50
2019-05-11T11:26:10.551Z,1.23
2019-05-11T11:28:40.498Z,0.60
2019-05-11T11:31:10.214Z,0.73
2019-05-11T11:33:39.994Z,0.60
2019-05-11T11:36:09.765Z,0.70
2019-05-11T11:38:39.751Z,0.60
2019-05-11T11:41:09.794Z,0.70
2019-05-11T11:43:39.718Z,0.93
2019-05-11T11:46:09.574Z,0.87
2019-05-11T11:48:39.686Z,0.80
2019-05-11T11:51:09.444Z,0.70
2019-05-11T11:53:39.491Z,0.97
2019-05-11T11:56:09.375Z,1.00
2019-05-11T11:58:39.428Z,0.87
2019-05-11T12:01:10.345Z,0.63
2019-05-11T12:03:41.118Z,0.80
2019-05-11T12:06:11.019Z,0.60
2019-05-11T12:08:40.709Z,0.60
2019-05-11T12:11:10.742Z,0.80
2019-05-11T12:13:40.534Z,0.70
2019-05-11T12:16:10.594Z,0.90
2019-05-11T12:18:40.542Z,0.80
2019-05-11T12:21:10.535Z,0.60
2019-05-11T12:23:40.521Z,0.70
2019-05-11T12:26:10.388Z,0.70
2019-05-11T12:28:40.301Z,0.60
2019-05-11T12:31:10.099Z,0.83
2019-05-11T12:33:40.059Z,0.70
2019-05-11T12:36:09.804Z,0.77
2019-05-11T12:38:39.663Z,0.80
2019-05-11T12:41:09.876Z,0.70
2019-05-11T12:43:39.607Z,0.70
2019-05-11T12:46:10.261Z,0.60
2019-05-11T12:48:41.001Z,0.60
2019-05-11T12:51:10.942Z,0.50
2019-05-11T12:53:40.735Z,0.80
2019-05-11T12:56:13.271Z,1.10
2019-05-11T12:58:43.211Z,0.57
2019-05-11T13:01:13.203Z,0.60
2019-05-11T13:03:43.090Z,0.60
2019-05-11T13:06:13.091Z,0.80
2019-05-11T13:08:50.806Z,0.60
2019-05-11T13:11:20.776Z,0.80
2019-05-11T13:13:50.710Z,0.60
2019-05-11T13:16:20.471Z,0.60
2019-05-11T13:18:50.250Z,0.70
2019-05-11T13:21:19.966Z,0.73
2019-05-11T13:23:49.694Z,0.80
2019-05-11T13:26:19.864Z,1.07
2019-05-11T13:28:49.638Z,0.87
2019-05-11T13:31:19.451Z,0.77
2019-05-11T13:33:49.623Z,1.10
2019-05-11T13:36:19.396Z,0.77
2019-05-11T13:38:49.962Z,0.80
2019-05-11T13:41:19.830Z,0.67
2019-05-11T13:43:49.923Z,1.00
2019-05-11T13:46:20.003Z,0.63
2019-05-11T13:48:50.386Z,0.57
2019-05-11T13:51:20.391Z,0.60
2019-05-11T13:53:50.407Z,0.60
2019-05-11T13:56:20.166Z,0.70
2019-05-11T13:58:50.234Z,0.60
2019-05-11T14:01:20.304Z,0.70
2019-05-11T14:03:50.414Z,0.60
2019-05-11T14:06:20.591Z,0.80
2019-05-11T14:08:50.698Z,0.70
2019-05-11T14:11:20.801Z,0.63
2019-05-11T14:13:50.766Z,0.80
2019-05-11T14:16:20.582Z,2.50
2019-05-11T14:18:50.396Z,1.80
2019-05-11T14:21:20.228Z,1.70
2019-05-11T14:23:50.264Z,0.70
2019-05-11T14:26:21.003Z,0.80
2019-05-11T14:28:50.974Z,1.00
2019-05-11T14:31:21.019Z,1.00
2019-05-11T14:33:51.200Z,1.30
2019-05-11T14:36:21.399Z,2.80
2019-05-11T14:38:51.143Z,1.30
2019-05-11T14:41:21.010Z,1.20
2019-05-11T14:43:51.195Z,1.23
2019-05-11T14:46:21.034Z,2.00
2019-05-11T14:48:51.437Z,1.47
2019-05-11T14:51:21.274Z,16.07
2019-05-11T14:53:51.111Z,1.83
2019-05-11T14:56:21.400Z,6.70
2019-05-11T14:58:51.128Z,1.63
2019-05-11T15:01:20.968Z,1.20
2019-05-11T15:03:50.937Z,1.93
2019-05-11T15:06:20.818Z,1.40
2019-05-11T15:08:50.714Z,1.30
2019-05-11T15:11:20.684Z,1.10
2019-05-11T15:13:50.445Z,1.00
2019-05-11T15:16:20.351Z,1.10
2019-05-11T15:18:50.235Z,1.20
2019-05-11T15:21:20.416Z,0.80
2019-05-11T15:23:50.271Z,0.87
2019-05-11T15:26:20.095Z,1.20
2019-05-11T15:28:50.061Z,0.70
2019-05-11T15:31:22.526Z,0.67
2019-05-11T15:33:51.266Z,0.80
2019-05-11T15:36:21.189Z,0.80
2019-05-11T15:38:51.224Z,0.77
2019-05-11T15:41:21.397Z,0.60
2019-05-11T15:43:51.282Z,0.70
2019-05-11T15:46:21.474Z,0.70
2019-05-11T15:48:58.740Z,0.70
2019-05-11T15:51:23.061Z,0.60
2019-05-11T15:53:53.105Z,0.70
2019-05-11T15:56:23.389Z,0.60
2019-05-11T15:58:53.366Z,0.60
2019-05-11T16:01:23.755Z,0.50
2019-05-11T16:03:54.087Z,0.77
2019-05-11T16:06:24.174Z,1.80
2019-05-11T16:08:54.148Z,1.20
2019-05-11T16:11:23.994Z,0.57
2019-05-11T16:13:53.712Z,0.80
2019-05-11T16:16:23.602Z,0.87
2019-05-11T16:19:07.895Z,1.17
2019-05-11T16:21:25.390Z,1.50
2019-05-11T16:23:55.387Z,1.50
2019-05-11T16:26:25.366Z,2.00
2019-05-11T16:28:55.086Z,2.40
2019-05-11T16:31:24.829Z,1.00
2019-05-11T16:33:54.558Z,0.90
2019-05-11T16:36:24.831Z,0.60
2019-05-11T16:38:54.810Z,0.50
2019-05-11T16:41:24.626Z,0.37
2019-05-11T16:43:54.668Z,1.20
2019-05-11T16:46:24.540Z,0.30
2019-05-11T16:48:54.478Z,0.60
2019-05-11T16:51:24.729Z,0.60
2019-05-11T16:53:54.471Z,0.90
2019-05-11T16:56:24.570Z,0.70
2019-05-11T16:58:54.982Z,0.80
2019-05-11T17:01:25.883Z,1.00
2019-05-11T17:03:57.842Z,0.80
2019-05-11T17:06:28.612Z,0.70
2019-05-11T17:08:58.843Z,0.80
2019-05-11T17:11:28.932Z,0.70
2019-05-11T17:13:59.152Z,0.50
2019-05-11T17:16:29.283Z,0.60
2019-05-11T17:18:59.127Z,0.60
2019-05-11T17:21:29.700Z,0.60
2019-05-11T17:23:59.965Z,0.60
2019-05-11T17:26:29.922Z,0.60
2019-05-11T17:28:59.689Z,0.73
2019-05-11T17:31:29.565Z,1.17
2019-05-11T17:33:59.247Z,0.70
2019-05-11T17:36:29.165Z,0.87
2019-05-11T17:38:58.866Z,0.70
2019-05-11T17:41:28.595Z,0.83
2019-05-11T17:43:59.311Z,0.70
2019-05-11T17:46:29.571Z,0.80
2019-05-11T17:48:59.249Z,0.70
2019-05-11T17:51:29.530Z,0.90
2019-05-11T17:53:59.789Z,1.00
2019-05-11T17:56:29.611Z,1.20
2019-05-11T17:58:59.310Z,1.03
2019-05-11T18:01:29.129Z,1.40
2019-05-11T18:03:58.918Z,1.90
2019-05-11T18:06:29.011Z,1.40
2019-05-11T18:08:58.978Z,3.40
2019-05-11T18:11:29.973Z,1.30
2019-05-11T18:13:59.918Z,1.13
2019-05-11T18:16:29.670Z,1.60
2019-05-11T18:18:59.606Z,1.70
2019-05-11T18:21:30.067Z,1.80
2019-05-11T18:24:00.104Z,2.10
2019-05-11T18:26:29.786Z,2.70
2019-05-11T18:28:59.682Z,1.80
2019-05-11T18:31:29.419Z,1.70
2019-05-11T18:33:59.138Z,1.83
2019-05-11T18:36:29.047Z,2.10
2019-05-11T18:38:58.888Z,1.70
2019-05-11T18:41:28.955Z,2.17
2019-05-11T18:43:58.713Z,2.43
2019-05-11T18:46:28.783Z,1.30
2019-05-11T18:48:58.559Z,1.47
2019-05-11T18:51:28.314Z,1.50
2019-05-11T18:53:58.563Z,1.30
2019-05-11T18:56:28.701Z,1.70
2019-05-11T18:58:58.577Z,2.20
2019-05-11T19:01:28.627Z,2.50
2019-05-11T19:04:00.148Z,2.93
2019-05-11T19:06:30.410Z,4.57
2019-05-11T19:09:00.415Z,7.10
2019-05-11T19:11:30.216Z,3.70
2019-05-11T19:14:00.059Z,3.33
2019-05-11T19:16:29.725Z,3.50
2019-05-11T19:18:59.686Z,3.80
2019-05-11T19:21:29.522Z,3.30
2019-05-11T19:23:59.416Z,3.43
2019-05-11T19:26:29.855Z,4.43
2019-05-11T19:29:00.758Z,3.40
2019-05-11T19:31:30.727Z,3.27
2019-05-11T19:34:00.471Z,3.67
2019-05-11T19:36:30.439Z,3.23
2019-05-11T19:39:00.495Z,3.30
2019-05-11T19:41:30.302Z,3.23
2019-05-11T19:44:00.126Z,3.60
2019-05-11T19:46:29.954Z,3.37
2019-05-11T19:48:59.844Z,3.67
2019-05-11T19:51:30.899Z,3.47
2019-05-11T19:54:01.611Z,11.57
2019-05-11T19:56:31.608Z,9.80
2019-05-11T19:59:01.363Z,12.43
2019-05-11T20:01:31.242Z,6.40
2019-05-11T20:04:01.115Z,4.30
2019-05-11T20:06:30.811Z,4.03
2019-05-11T20:09:00.614Z,3.97
2019-05-11T20:11:30.689Z,2.90
2019-05-11T20:14:00.718Z,3.03
2019-05-11T20:16:30.702Z,3.40
2019-05-11T20:19:00.527Z,3.40
2019-05-11T20:21:30.588Z,3.37
2019-05-11T20:24:00.283Z,3.67
2019-05-11T20:26:30.414Z,3.57
2019-05-11T20:29:00.427Z,4.20
2019-05-11T20:31:30.243Z,4.33
2019-05-11T20:34:00.210Z,4.33
2019-05-11T20:36:30.056Z,4.63
2019-05-11T20:39:00.067Z,4.53
2019-05-11T20:41:29.801Z,4.30
2019-05-11T20:43:59.579Z,4.07
2019-05-11T20:46:30.210Z,4.60
2019-05-11T20:49:00.332Z,4.60
2019-05-11T20:51:36.740Z,4.80
2019-05-11T20:54:01.570Z,4.40
2019-05-11T20:56:31.399Z,4.90
2019-05-11T20:59:01.247Z,4.50
2019-05-11T21:01:31.125Z,4.80
2019-05-11T21:04:00.846Z,5.00
2019-05-11T21:06:30.590Z,4.50
2019-05-11T21:09:00.270Z,4.73
2019-05-11T21:11:30.076Z,4.70
2019-05-11T21:13:59.922Z,4.50
2019-05-11T21:16:29.688Z,4.47
2019-05-11T21:18:59.926Z,4.80
2019-05-11T21:21:30.436Z,4.23
2019-05-11T21:24:00.377Z,4.97
2019-05-11T21:26:30.114Z,4.30
2019-05-11T21:28:59.916Z,4.20
2019-05-11T21:31:29.754Z,4.20
2019-05-11T21:33:59.869Z,4.23
2019-05-11T21:36:29.935Z,4.27
2019-05-11T21:39:00.006Z,4.13
2019-05-11T21:41:30.960Z,4.43
2019-05-11T21:44:01.191Z,4.20
2019-05-11T21:46:31.152Z,4.07
2019-05-11T21:49:01.129Z,3.50
2019-05-11T21:51:31.179Z,3.67
2019-05-11T21:54:00.872Z,3.83
2019-05-11T21:56:30.899Z,3.20
2019-05-11T21:59:00.710Z,3.60
2019-05-11T22:01:30.844Z,3.87
2019-05-11T22:04:01.595Z,3.50
2019-05-11T22:06:31.405Z,4.03
2019-05-11T22:09:01.797Z,3.87
2019-05-11T22:11:31.530Z,2.90
2019-05-11T22:14:01.767Z,3.63
2019-05-11T22:16:31.690Z,3.30
2019-05-11T22:19:01.716Z,3.27
2019-05-11T22:21:31.371Z,3.27
2019-05-11T22:24:01.214Z,3.27
2019-05-11T22:26:31.346Z,3.30
2019-05-11T22:29:01.765Z,3.53
2019-05-11T22:31:31.873Z,3.10
2019-05-11T22:34:01.662Z,3.00
2019-05-11T22:36:31.507Z,3.37
2019-05-11T22:39:01.452Z,3.07
2019-05-11T22:41:31.300Z,3.33
2019-05-11T22:44:01.138Z,3.07
2019-05-11T22:46:31.147Z,2.80
2019-05-11T22:49:01.131Z,3.10
2019-05-11T22:51:30.939Z,3.13
2019-05-11T22:54:00.662Z,2.90
2019-05-11T22:56:30.477Z,3.40
2019-05-11T22:59:00.214Z,3.17
2019-05-11T23:01:29.991Z,2.90
2019-05-11T23:03:59.662Z,2.90
2019-05-11T23:06:29.756Z,3.00
2019-05-11T23:08:59.506Z,2.97
2019-05-11T23:11:29.270Z,2.53
2019-05-11T23:13:59.272Z,3.27
2019-05-11T23:16:29.138Z,3.40
2019-05-11T23:18:59.187Z,3.17
2019-05-11T23:21:30.328Z,3.40
2019-05-11T23:24:01.842Z,3.17
2019-05-11T23:26:31.545Z,3.20
2019-05-11T23:29:01.234Z,3.70
2019-05-11T23:31:31.120Z,3.60
2019-05-11T23:34:01.134Z,3.70
2019-05-11T23:36:31.350Z,4.20
2019-05-11T23:39:01.150Z,4.13
2019-05-11T23:41:31.087Z,4.70
2019-05-11T23:44:01.561Z,4.60
2019-05-11T23:46:31.783Z,4.73
2019-05-11T23:49:01.595Z,4.70
2019-05-11T23:51:31.300Z,4.63
2019-05-11T23:54:01.022Z,4.67
2019-05-11T23:56:30.795Z,4.87
2019-05-11T23:59:01.105Z,4.60
